createdAt,value
2022-08-30T00:02:20.552Z,22.00
2022-08-30T00:04:48.367Z,22.50
2022-08-30T00:07:16.221Z,24.80
2022-08-30T00:09:43.874Z,25.80
2022-08-30T00:12:11.617Z,25.20
2022-08-30T00:14:39.174Z,24.40
2022-08-30T00:17:06.841Z,24.50
2022-08-30T00:19:34.297Z,24.10
2022-08-30T00:22:01.688Z,23.30
2022-08-30T00:24:29.184Z,20.80
2022-08-30T00:26:56.549Z,21.90
2022-08-30T00:29:23.904Z,23.90
2022-08-30T00:31:51.184Z,20.20
2022-08-30T00:34:18.750Z,21.80
2022-08-30T00:36:45.951Z,20.50
2022-08-30T00:39:13.199Z,21.10
2022-08-30T00:41:40.599Z,22.50
2022-08-30T00:44:07.986Z,21.10
2022-08-30T00:46:35.413Z,21.10
2022-08-30T00:49:07.025Z,20.90
2022-08-30T00:51:34.767Z,19.50
2022-08-30T00:54:03.220Z,18.80
2022-08-30T00:56:31.117Z,21.70
2022-08-30T00:59:02.143Z,22.10
2022-08-30T01:04:02.675Z,22.20
2022-08-30T01:06:32.504Z,22.00
2022-08-30T01:09:02.060Z,22.60
2022-08-30T01:11:33.955Z,23.00
2022-08-30T01:14:02.768Z,23.00
2022-08-30T01:16:32.481Z,24.10
2022-08-30T01:19:00.731Z,23.50
2022-08-30T01:21:58.578Z,23.60
2022-08-30T01:24:26.241Z,24.30
2022-08-30T01:26:53.942Z,22.80
2022-08-30T01:29:23.443Z,23.70
2022-08-30T01:31:51.018Z,24.60
2022-08-30T01:34:19.046Z,24.90
2022-08-30T01:36:46.664Z,24.10
2022-08-30T01:39:17.376Z,24.90
2022-08-30T01:41:45.344Z,25.90
2022-08-30T01:44:14.285Z,27.80
2022-08-30T01:46:47.106Z,26.90
2022-08-30T01:49:17.798Z,27.40
2022-08-30T01:52:00.948Z,29.20
2022-08-30T01:54:37.750Z,31.20
2022-08-30T01:57:09.612Z,30.60
2022-08-30T01:59:40.386Z,33.60
2022-08-30T02:02:08.328Z,34.70
2022-08-30T02:04:36.289Z,35.20
2022-08-30T02:07:05.413Z,36.80
2022-08-30T02:09:33.309Z,37.80
2022-08-30T02:12:01.601Z,39.90
2022-08-30T02:14:29.269Z,40.30
2022-08-30T02:16:57.084Z,40.70
2022-08-30T02:19:24.685Z,40.30
2022-08-30T02:21:52.486Z,41.20
2022-08-30T02:24:23.546Z,42.90
2022-08-30T02:29:22.020Z,44.30
2022-08-30T02:31:49.717Z,45.50
2022-08-30T02:34:18.221Z,43.20
2022-08-30T02:36:45.826Z,44.50
2022-08-30T02:39:14.075Z,46.30
2022-08-30T02:41:42.538Z,46.60
2022-08-30T02:44:13.403Z,46.50
2022-08-30T02:46:41.757Z,45.50
2022-08-30T02:49:32.144Z,48.20
2022-08-30T02:51:59.296Z,47.80
2022-08-30T02:54:27.942Z,45.00
2022-08-30T02:56:55.984Z,48.30
2022-08-30T02:59:23.660Z,49.70
2022-08-30T03:01:51.161Z,50.70
2022-08-30T03:04:18.766Z,48.70
2022-08-30T03:06:54.583Z,51.50
2022-08-30T03:09:22.104Z,52.00
2022-08-30T03:11:49.746Z,55.10
2022-08-30T03:14:17.398Z,53.90
2022-08-30T03:16:45.304Z,53.60
2022-08-30T03:19:13.272Z,53.00
2022-08-30T03:21:40.822Z,53.40
2022-08-30T03:24:08.293Z,56.00
2022-08-30T03:26:35.874Z,54.30
2022-08-30T03:29:06.597Z,53.70
2022-08-30T03:31:40.763Z,52.50
2022-08-30T03:34:21.387Z,53.20
2022-08-30T03:36:50.798Z,53.20
2022-08-30T03:39:19.053Z,53.10
2022-08-30T03:41:52.011Z,52.10
2022-08-30T03:44:21.454Z,50.30
2022-08-30T03:46:52.234Z,50.80
2022-08-30T03:49:24.198Z,51.60
2022-08-30T03:51:52.267Z,52.30
2022-08-30T03:54:19.896Z,54.80
2022-08-30T03:56:47.424Z,51.80
2022-08-30T03:59:15.248Z,49.80
2022-08-30T04:01:45.190Z,50.60
2022-08-30T04:04:15.358Z,50.70
2022-08-30T04:06:45.144Z,50.00
2022-08-30T04:09:12.736Z,48.80
2022-08-30T04:11:40.517Z,47.60
2022-08-30T04:14:08.748Z,47.90
2022-08-30T04:16:36.582Z,48.30
2022-08-30T04:19:04.215Z,47.40
2022-08-30T04:21:32.316Z,46.00
2022-08-30T04:24:03.908Z,47.40
2022-08-30T04:26:31.840Z,46.60
2022-08-30T04:28:59.432Z,45.50
2022-08-30T04:31:31.283Z,46.10
2022-08-30T04:34:01.797Z,45.90
2022-08-30T04:36:29.633Z,49.60
2022-08-30T04:39:00.309Z,50.20
2022-08-30T04:41:28.010Z,48.30
2022-08-30T04:44:00.738Z,46.60
2022-08-30T04:46:30.863Z,51.10
2022-08-30T04:48:58.629Z,46.40
2022-08-30T04:51:26.177Z,48.60
2022-08-30T04:53:56.520Z,49.20
2022-08-30T04:56:24.817Z,48.40
2022-08-30T04:58:54.691Z,48.20
2022-08-30T05:01:29.370Z,48.60
2022-08-30T05:04:01.653Z,47.70
2022-08-30T05:06:30.792Z,45.70
2022-08-30T05:09:00.393Z,50.70
2022-08-30T05:11:29.021Z,49.40
2022-08-30T05:13:57.345Z,50.30
2022-08-30T05:16:25.028Z,48.70
2022-08-30T05:18:56.183Z,45.70
2022-08-30T05:21:26.784Z,47.10
2022-08-30T05:23:57.996Z,48.60
2022-08-30T05:26:30.730Z,47.20
2022-08-30T05:28:59.165Z,47.00
2022-08-30T05:31:33.650Z,46.80
2022-08-30T05:34:01.911Z,44.00
2022-08-30T05:36:32.608Z,44.70
2022-08-30T05:39:02.540Z,43.70
2022-08-30T05:41:34.916Z,43.90
2022-08-30T05:44:08.277Z,48.10
2022-08-30T05:46:45.215Z,42.90
2022-08-30T05:49:13.354Z,43.40
2022-08-30T05:51:43.279Z,44.60
2022-08-30T05:54:17.686Z,43.30
2022-08-30T05:56:49.991Z,41.80
2022-08-30T05:59:17.617Z,41.10
2022-08-30T06:01:52.464Z,41.00
2022-08-30T06:04:27.930Z,40.80
2022-08-30T06:06:59.426Z,42.20
2022-08-30T06:09:57.450Z,39.20
2022-08-30T06:12:38.861Z,39.90
2022-08-30T06:15:07.602Z,38.30
2022-08-30T06:17:35.476Z,38.90
2022-08-30T06:20:03.754Z,41.50
2022-08-30T06:22:31.471Z,40.30
2022-08-30T06:24:59.154Z,42.50
2022-08-30T06:27:26.761Z,48.20
2022-08-30T06:29:54.411Z,42.00
2022-08-30T06:32:24.514Z,46.80
2022-08-30T06:34:53.812Z,44.90
2022-08-30T06:37:30.020Z,42.60
2022-08-30T06:39:59.222Z,41.30
2022-08-30T06:42:32.490Z,38.40
2022-08-30T06:45:11.145Z,40.90
2022-08-30T06:47:40.284Z,39.60
2022-08-30T06:50:11.789Z,40.80
2022-08-30T06:52:46.084Z,41.80
2022-08-30T06:55:17.799Z,38.80
2022-08-30T06:57:48.781Z,40.10
2022-08-30T07:00:17.458Z,37.80
2022-08-30T07:02:46.707Z,36.80
2022-08-30T07:05:18.648Z,38.10
2022-08-30T07:07:47.009Z,37.30
2022-08-30T07:10:17.537Z,37.20
2022-08-30T07:12:45.680Z,37.80
2022-08-30T07:15:14.196Z,38.00
2022-08-30T07:18:00.457Z,37.90
2022-08-30T07:20:28.198Z,35.20
2022-08-30T07:23:09.792Z,34.60
2022-08-30T07:25:40.669Z,39.20
2022-08-30T07:28:10.336Z,35.10
2022-08-30T07:30:38.839Z,35.00
2022-08-30T07:33:06.693Z,33.40
2022-08-30T07:35:37.355Z,33.60
2022-08-30T07:38:05.733Z,32.50
2022-08-30T07:40:37.050Z,32.30
2022-08-30T07:43:04.988Z,34.10
2022-08-30T07:45:36.362Z,32.90
2022-08-30T07:48:06.805Z,34.20
2022-08-30T07:50:34.364Z,34.50
2022-08-30T07:53:03.392Z,33.20
2022-08-30T07:55:33.022Z,32.10
2022-08-30T08:00:28.302Z,30.50
2022-08-30T08:02:55.860Z,30.70
2022-08-30T08:08:15.547Z,30.80
2022-08-30T08:10:43.410Z,31.70
2022-08-30T08:13:10.972Z,30.10
2022-08-30T08:15:39.268Z,29.30
2022-08-30T08:18:07.072Z,30.60
2022-08-30T08:20:35.232Z,29.30
2022-08-30T08:23:04.458Z,28.00
2022-08-30T08:25:32.387Z,28.40
2022-08-30T08:28:00.044Z,28.10
2022-08-30T08:30:27.453Z,28.20
2022-08-30T08:32:55.006Z,29.30
2022-08-30T08:35:25.523Z,27.90
2022-08-30T08:37:53.232Z,29.10
2022-08-30T08:40:24.751Z,28.00
2022-08-30T08:43:19.525Z,26.70
2022-08-30T08:46:16.560Z,25.90
2022-08-30T08:49:00.079Z,25.40
2022-08-30T08:51:53.233Z,26.90
2022-08-30T08:54:36.320Z,25.60
2022-08-30T08:57:04.144Z,26.70
2022-08-30T08:59:31.832Z,25.30
2022-08-30T09:02:02.774Z,25.50
2022-08-30T09:04:37.469Z,22.80
2022-08-30T09:07:32.819Z,23.10
2022-08-30T09:10:00.504Z,20.80
2022-08-30T09:12:28.140Z,22.10
2022-08-30T09:15:27.489Z,22.40
2022-08-30T09:18:03.559Z,19.00
2022-08-30T09:20:48.791Z,19.10
2022-08-30T09:23:23.206Z,18.80
2022-08-30T09:26:06.680Z,17.40
2022-08-30T09:28:45.764Z,16.40
2022-08-30T09:31:45.362Z,18.70
2022-08-30T09:34:19.789Z,16.00
2022-08-30T09:36:53.307Z,17.30
2022-08-30T09:39:33.595Z,14.20
2022-08-30T09:42:25.705Z,14.80
2022-08-30T09:45:10.013Z,14.40
2022-08-30T09:47:43.225Z,15.70
2022-08-30T09:50:15.892Z,16.20
2022-08-30T09:52:55.096Z,14.10
2022-08-30T09:56:06.358Z,13.10
2022-08-30T09:59:04.387Z,13.00
2022-08-30T10:01:37.325Z,14.10
2022-08-30T10:04:09.547Z,12.90
2022-08-30T10:07:15.723Z,12.00
2022-08-30T10:10:17.971Z,11.50
2022-08-30T10:13:33.792Z,11.60
2022-08-30T10:16:15.544Z,11.80
2022-08-30T10:19:35.611Z,13.10
2022-08-30T10:22:19.248Z,12.80
2022-08-30T10:24:52.334Z,10.70
2022-08-30T10:27:38.242Z,11.20
2022-08-30T10:30:14.226Z,10.50
2022-08-30T10:32:56.971Z,11.70
2022-08-30T10:35:38.514Z,11.10
2022-08-30T10:38:13.984Z,10.80
2022-08-30T10:41:10.729Z,10.70
2022-08-30T10:43:56.357Z,10.70
2022-08-30T10:47:02.546Z,10.90
2022-08-30T10:53:05.591Z,9.10
2022-08-30T10:55:37.720Z,8.10
2022-08-30T10:58:08.544Z,9.10
2022-08-30T11:01:05.981Z,8.50
2022-08-30T11:03:52.950Z,8.40
2022-08-30T11:06:35.099Z,7.30
2022-08-30T11:09:20.707Z,9.10
2022-08-30T11:12:45.721Z,6.90
2022-08-30T11:15:23.283Z,7.60
2022-08-30T11:18:11.772Z,6.30
2022-08-30T11:20:50.369Z,6.20
2022-08-30T11:23:32.793Z,7.40
2022-08-30T11:26:16.982Z,6.40
2022-08-30T11:28:49.448Z,6.60
2022-08-30T11:31:23.650Z,6.50
2022-08-30T11:33:59.444Z,6.40
2022-08-30T11:36:50.484Z,5.90
2022-08-30T11:39:53.033Z,6.60
2022-08-30T11:42:44.956Z,6.50
2022-08-30T11:45:43.613Z,5.60
2022-08-30T11:49:02.787Z,6.20
2022-08-30T11:52:27.292Z,5.70
2022-08-30T11:55:41.205Z,6.30
2022-08-30T11:58:51.008Z,7.40
2022-08-30T12:01:50.052Z,5.90
2022-08-30T12:04:17.008Z,5.60
2022-08-30T12:06:50.273Z,6.70
2022-08-30T12:09:24.167Z,5.90
2022-08-30T12:11:59.198Z,6.70
2022-08-30T12:14:54.275Z,5.20
2022-08-30T12:18:05.051Z,5.80
2022-08-30T12:23:30.160Z,6.10
2022-08-30T12:26:25.094Z,5.80
2022-08-30T12:29:20.153Z,6.00
2022-08-30T12:31:58.090Z,5.40
2022-08-30T12:34:33.365Z,5.60
2022-08-30T12:37:10.420Z,5.40
2022-08-30T12:39:42.366Z,5.70
2022-08-30T12:42:23.053Z,5.50
2022-08-30T12:44:57.925Z,5.40
2022-08-30T12:47:35.078Z,5.00
2022-08-30T12:50:05.813Z,5.50
2022-08-30T12:52:45.909Z,5.80
2022-08-30T12:55:21.605Z,5.40
2022-08-30T12:58:09.395Z,6.10
2022-08-30T13:00:47.009Z,5.90
2022-08-30T13:03:32.896Z,5.10
2022-08-30T13:06:00.729Z,5.70
2022-08-30T13:08:44.752Z,4.80
2022-08-30T13:11:26.102Z,5.60
2022-08-30T13:14:34.181Z,5.20
2022-08-30T13:17:18.946Z,4.70
2022-08-30T13:20:06.452Z,5.40
2022-08-30T13:22:42.125Z,5.10
2022-08-30T13:25:11.530Z,5.40
2022-08-30T13:27:39.910Z,4.90
2022-08-30T13:30:16.644Z,5.90
2022-08-30T13:32:44.847Z,5.00
2022-08-30T13:35:13.292Z,4.90
2022-08-30T13:37:50.733Z,5.00
2022-08-30T13:40:21.023Z,5.60
2022-08-30T13:42:49.786Z,5.10
2022-08-30T13:48:07.154Z,5.40
2022-08-30T13:50:44.773Z,5.10
2022-08-30T13:53:12.301Z,4.50
2022-08-30T13:55:41.985Z,5.50
2022-08-30T13:58:09.887Z,5.10
2022-08-30T14:00:41.025Z,5.00
2022-08-30T14:03:08.771Z,4.60
2022-08-30T14:06:21.875Z,4.70
2022-08-30T14:08:48.685Z,4.90
2022-08-30T14:11:21.094Z,4.60
2022-08-30T14:16:42.706Z,4.90
2022-08-30T14:19:12.198Z,4.80
2022-08-30T14:21:39.981Z,5.00
2022-08-30T14:24:08.223Z,5.00
2022-08-30T14:27:00.344Z,5.10
2022-08-30T14:29:29.526Z,5.20
2022-08-30T14:32:00.072Z,4.90
2022-08-30T14:34:33.196Z,4.90
2022-08-30T14:37:01.021Z,4.90
2022-08-30T14:39:28.807Z,5.10
2022-08-30T14:41:56.712Z,4.90
2022-08-30T14:44:25.705Z,5.20
2022-08-30T14:46:54.071Z,5.00
2022-08-30T14:49:22.540Z,5.50
2022-08-30T14:51:50.982Z,4.90
2022-08-30T14:54:26.725Z,5.10
2022-08-30T14:57:19.599Z,4.60
2022-08-30T14:59:47.199Z,6.50
2022-08-30T15:02:14.845Z,6.00
2022-08-30T15:04:43.130Z,5.10
2022-08-30T15:07:13.783Z,5.10
2022-08-30T15:09:42.528Z,5.40
2022-08-30T15:12:10.177Z,5.30
2022-08-30T15:14:38.379Z,5.60
2022-08-30T15:17:07.024Z,5.30
2022-08-30T15:19:34.959Z,5.60
2022-08-30T15:22:05.670Z,5.20
2022-08-30T15:24:34.179Z,5.30
2022-08-30T15:27:02.847Z,5.50
2022-08-30T15:29:31.834Z,5.10
2022-08-30T15:32:01.886Z,5.80
2022-08-30T15:34:30.670Z,5.90
2022-08-30T15:36:58.377Z,6.00
2022-08-30T15:39:26.447Z,6.30
2022-08-30T15:42:00.293Z,6.70
2022-08-30T15:44:31.209Z,5.80
2022-08-30T15:46:59.302Z,5.30
2022-08-30T15:49:29.029Z,4.70
2022-08-30T15:52:00.562Z,5.00
2022-08-30T15:54:28.966Z,5.10
2022-08-30T15:57:00.228Z,5.00
2022-08-30T15:59:31.181Z,5.30
2022-08-30T16:01:59.341Z,5.30
2022-08-30T16:04:27.658Z,5.20
2022-08-30T16:06:56.068Z,5.30
2022-08-30T16:09:24.264Z,5.40
2022-08-30T16:11:52.003Z,5.20
2022-08-30T16:14:19.739Z,5.50
2022-08-30T16:16:47.535Z,6.10
2022-08-30T16:19:15.497Z,5.40
2022-08-30T16:21:43.782Z,5.60
2022-08-30T16:24:13.763Z,5.50
2022-08-30T16:26:42.911Z,5.90
2022-08-30T16:29:12.092Z,5.00
2022-08-30T16:31:43.034Z,4.70
2022-08-30T16:34:16.653Z,4.90
2022-08-30T16:36:44.507Z,5.30
2022-08-30T16:39:13.666Z,6.00
2022-08-30T16:41:44.575Z,5.30
2022-08-30T16:44:13.342Z,5.40
2022-08-30T16:46:43.931Z,5.90
2022-08-30T16:49:25.478Z,5.60
2022-08-30T16:54:21.499Z,5.50
2022-08-30T16:56:49.337Z,5.20
2022-08-30T16:59:17.315Z,5.60
2022-08-30T17:01:48.737Z,5.40
2022-08-30T17:04:19.663Z,6.00
2022-08-30T17:06:51.150Z,6.10
2022-08-30T17:09:19.954Z,5.90
2022-08-30T17:11:47.934Z,6.00
2022-08-30T17:14:22.898Z,5.90
2022-08-30T17:17:00.326Z,6.40
2022-08-30T17:19:29.639Z,6.30
2022-08-30T17:21:58.104Z,5.80
2022-08-30T17:24:26.709Z,6.20
2022-08-30T17:26:54.339Z,5.70
2022-08-30T17:29:21.921Z,6.30
2022-08-30T17:31:51.165Z,6.40
2022-08-30T17:34:22.011Z,6.00
2022-08-30T17:36:52.135Z,6.10
2022-08-30T17:39:19.746Z,6.20
2022-08-30T17:41:50.523Z,6.30
2022-08-30T17:44:23.521Z,6.50
2022-08-30T17:46:54.874Z,6.90
2022-08-30T17:49:24.024Z,6.90
2022-08-30T17:51:56.685Z,6.80
2022-08-30T17:54:27.345Z,6.60
2022-08-30T17:56:56.736Z,7.40
2022-08-30T17:59:25.978Z,7.30
2022-08-30T18:01:55.274Z,7.70
2022-08-30T18:04:24.918Z,7.70
2022-08-30T18:06:54.289Z,7.80
2022-08-30T18:09:21.957Z,7.60
2022-08-30T18:11:50.477Z,7.40
2022-08-30T18:14:18.372Z,8.10
2022-08-30T18:16:49.982Z,8.00
2022-08-30T18:19:27.617Z,8.60
2022-08-30T18:21:55.289Z,8.50
2022-08-30T18:24:23.737Z,8.40
2022-08-30T18:26:54.279Z,8.40
2022-08-30T18:29:29.254Z,8.70
2022-08-30T18:32:01.316Z,9.00
2022-08-30T18:34:29.221Z,8.40
2022-08-30T18:37:29.409Z,8.90
2022-08-30T18:40:18.895Z,8.80
2022-08-30T18:43:35.996Z,8.30
2022-08-30T18:46:18.721Z,9.00
2022-08-30T18:48:57.128Z,9.50
2022-08-30T18:51:41.013Z,9.50
2022-08-30T18:54:13.237Z,8.80
2022-08-30T18:56:53.659Z,9.20
2022-08-30T18:59:42.986Z,8.70
2022-08-30T19:02:45.053Z,8.90
2022-08-30T19:05:25.130Z,9.40
2022-08-30T19:07:57.393Z,9.10
2022-08-30T19:10:32.990Z,9.20
2022-08-30T19:13:11.969Z,8.70
2022-08-30T19:16:11.956Z,8.80
2022-08-30T19:18:40.612Z,9.10
2022-08-30T19:21:13.714Z,10.00
2022-08-30T19:23:41.358Z,9.30
2022-08-30T19:26:10.912Z,9.10
2022-08-30T19:28:39.823Z,9.50
2022-08-30T19:31:07.799Z,9.10
2022-08-30T19:33:35.732Z,9.40
2022-08-30T19:36:06.182Z,9.30
2022-08-30T19:38:36.801Z,9.30
2022-08-30T19:41:05.474Z,9.20
2022-08-30T19:43:32.877Z,9.10
2022-08-30T19:46:01.037Z,8.70
2022-08-30T19:48:32.254Z,9.10
2022-08-30T19:51:07.629Z,8.80
2022-08-30T19:53:35.723Z,9.50
2022-08-30T19:56:03.720Z,9.40
2022-08-30T19:58:31.785Z,9.40
2022-08-30T20:01:12.137Z,9.90
2022-08-30T20:03:47.130Z,9.10
2022-08-30T20:06:15.956Z,8.40
2022-08-30T20:08:44.033Z,9.70
2022-08-30T20:11:16.847Z,9.20
2022-08-30T20:13:46.983Z,9.60
2022-08-30T20:16:16.051Z,9.00
2022-08-30T20:18:44.460Z,9.70
2022-08-30T20:21:14.151Z,9.40
2022-08-30T20:23:43.279Z,9.30
2022-08-30T20:26:12.436Z,9.00
2022-08-30T20:28:44.364Z,9.60
2022-08-30T20:31:12.571Z,9.90
2022-08-30T20:33:40.609Z,10.30
2022-08-30T20:36:10.821Z,9.80
2022-08-30T20:38:39.339Z,9.20
2022-08-30T20:41:16.390Z,9.00
2022-08-30T20:43:44.513Z,8.70
2022-08-30T20:46:18.882Z,9.50
2022-08-30T20:48:47.334Z,9.40
2022-08-30T20:51:18.394Z,10.00
2022-08-30T20:53:45.988Z,10.50
2022-08-30T20:56:16.477Z,9.90
2022-08-30T20:58:44.706Z,10.50
2022-08-30T21:01:13.539Z,9.20
2022-08-30T21:03:43.029Z,10.10
2022-08-30T21:06:13.453Z,10.60
2022-08-30T21:08:43.351Z,10.10
2022-08-30T21:11:13.311Z,10.70
2022-08-30T21:13:40.768Z,10.60
2022-08-30T21:16:08.231Z,10.00
2022-08-30T21:18:40.171Z,9.50
2022-08-30T21:21:20.719Z,9.70
2022-08-30T21:24:00.054Z,10.50
2022-08-30T21:26:27.720Z,10.40
2022-08-30T21:28:55.457Z,10.60
2022-08-30T21:31:26.348Z,10.50
2022-08-30T21:33:54.913Z,10.10
2022-08-30T21:36:42.972Z,10.40
2022-08-30T21:39:15.361Z,10.20
2022-08-30T21:41:43.441Z,10.70
2022-08-30T21:44:15.766Z,10.70
2022-08-30T21:46:44.154Z,9.90
2022-08-30T21:49:14.359Z,10.70
2022-08-30T21:51:44.115Z,10.10
2022-08-30T21:54:13.262Z,11.40
2022-08-30T21:56:44.960Z,10.80
2022-08-30T21:59:13.207Z,9.60
2022-08-30T22:01:42.876Z,10.60
2022-08-30T22:04:12.274Z,9.80
2022-08-30T22:06:45.097Z,10.10
2022-08-30T22:09:14.075Z,9.70
2022-08-30T22:11:43.518Z,9.00
2022-08-30T22:14:13.094Z,10.00
2022-08-30T22:16:41.373Z,10.00
2022-08-30T22:19:09.002Z,10.40
2022-08-30T22:21:38.206Z,9.90
2022-08-30T22:24:05.882Z,9.70
2022-08-30T22:26:34.870Z,10.00
2022-08-30T22:29:04.433Z,10.00
2022-08-30T22:31:32.643Z,9.90
2022-08-30T22:34:00.243Z,9.90
2022-08-30T22:36:32.744Z,9.80
2022-08-30T22:39:02.111Z,10.10
2022-08-30T22:41:33.665Z,10.40
2022-08-30T22:44:02.980Z,10.80
2022-08-30T22:46:34.624Z,10.30
2022-08-30T22:49:06.183Z,10.00
2022-08-30T22:51:34.977Z,10.30
2022-08-30T22:54:04.405Z,11.10
2022-08-30T22:56:34.052Z,10.60
2022-08-30T22:59:02.018Z,10.60
2022-08-30T23:01:36.683Z,11.40
2022-08-30T23:04:08.218Z,10.70
2022-08-30T23:06:35.848Z,11.90
2022-08-30T23:09:05.223Z,11.70
2022-08-30T23:11:33.422Z,11.80
2022-08-30T23:14:02.990Z,12.00
2022-08-30T23:16:32.087Z,12.10
2022-08-30T23:18:59.943Z,11.90
2022-08-30T23:21:30.973Z,11.70
2022-08-30T23:27:03.493Z,12.10
2022-08-30T23:29:50.489Z,12.00
2022-08-30T23:32:36.388Z,12.30
2022-08-30T23:35:25.398Z,11.80
2022-08-30T23:38:21.749Z,11.50
2022-08-30T23:41:07.692Z,11.90
2022-08-30T23:43:54.431Z,12.70
2022-08-30T23:46:41.960Z,12.40
2022-08-30T23:49:28.024Z,12.20
2022-08-30T23:52:14.258Z,12.10
2022-08-30T23:55:00.128Z,12.70
2022-08-30T23:57:46.238Z,13.00
